PWSweather.com
Personal Weather Stations
Station Observations

CreweGB

Lat: 53.0806, Lon: -2.476

Elevation: 151

Station Type: Davis Vantage Pro 2

http://www.c9700170.myzen.co.uk/weather/

Latest ConditionsUpdated 6:20:02 AM GMT Wednesday, Feb 20, 2019
Currently Today's Max Today's Min Today's Average
Temperature 46.4°F8.0°C 46.4°F8.0°C 44.2°F6.8°C 45.2°F7.3°C
Dew Point 43.3°F6.3°C 43.6°F6.4°C 41.8°F5.4°C 42.8°F6.0°C
Winds 5.0 mph S8.0 kmh S 9.0 mph -14.5 kmh - - 5.6 mph 9.0 kmh
Wind Gusts 10.0 mph16.1 kmh 18.0 mph29.0 kmh - -
Humidity 89% 92% 89% 91%
Pressure 29.92 in1013.2 mb 29.93 in1013.5 mb 29.91 in1012.9 mb -
Precipitation - 0.02 in0.5 mm - -
Hour Temp Dew Point Humidity Winds Wind Gusts Pressure Precip Precip Rate Daily Precip Total
06:20 AM 46.4°F8.0°C 43.3°F6.3°C 89% 5.0 mph S8.0 kmh S 10.0 mph16.1 kmh 29.92 in1013.2 mb 0.00 in0.0 mm 0.00 in0.0 mm 0.02 in0.5 mm
06:10 AM 46.4°F8.0°C 43.6°F6.4°C 90% 5.0 mph S8.0 kmh S 12.0 mph19.3 kmh 29.92 in1013.2 mb 0.00 in0.0 mm 0.00 in0.0 mm 0.02 in0.5 mm
06:00 AM 46.4°F8.0°C 43.6°F6.4°C 90% 5.0 mph S8.0 kmh S 12.0 mph19.3 kmh 29.92 in1013.2 mb 0.00 in0.0 mm 0.00 in0.0 mm 0.02 in0.5 mm
05:50 AM 46.4°F8.0°C 43.6°F6.4°C 90% 5.0 mph S8.0 kmh S 14.0 mph22.5 kmh 29.91 in1012.9 mb 0.00 in0.0 mm 0.00 in0.0 mm 0.02 in0.5 mm
05:40 AM 46.4°F8.0°C 43.6°F6.4°C 90% 7.0 mph S11.3 kmh S 14.0 mph22.5 kmh 29.91 in1012.9 mb 0.00 in0.0 mm 0.00 in0.0 mm 0.02 in0.5 mm
05:30 AM 46.4°F8.0°C 43.6°F6.4°C 90% 6.0 mph S9.7 kmh S 14.0 mph22.5 kmh 29.92 in1013.2 mb 0.00 in0.0 mm 0.00 in0.0 mm 0.02 in0.5 mm
05:20 AM 46.2°F7.9°C 43.4°F6.3°C 90% 6.0 mph S9.7 kmh S 14.0 mph22.5 kmh 29.91 in1012.9 mb 0.00 in0.0 mm 0.00 in0.0 mm 0.02 in0.5 mm
05:10 AM 46.2°F7.9°C 43.4°F6.3°C 90% 6.0 mph SSW9.7 kmh SSW 12.0 mph19.3 kmh 29.92 in1013.2 mb 0.00 in0.0 mm 0.00 in0.0 mm 0.02 in0.5 mm
05:00 AM 46.2°F7.9°C 43.4°F6.3°C 90% 7.0 mph SSW11.3 kmh SSW 13.0 mph20.9 kmh 29.91 in1012.9 mb 0.00 in0.0 mm 0.00 in0.0 mm 0.02 in0.5 mm
04:50 AM 46.0°F7.8°C 43.6°F6.4°C 91% 7.0 mph SSW11.3 kmh SSW 17.0 mph27.4 kmh 29.91 in1012.9 mb 0.00 in0.0 mm 0.00 in0.0 mm 0.02 in0.5 mm
04:40 AM 46.0°F7.8°C 43.6°F6.4°C 91% 7.0 mph SSW11.3 kmh SSW 15.0 mph24.1 kmh 29.91 in1012.9 mb 0.01 in0.3 mm 0.00 in0.0 mm 0.02 in0.5 mm
04:30 AM 45.9°F7.7°C 43.4°F6.3°C 91% 8.0 mph SSW12.9 kmh SSW 17.0 mph27.4 kmh 29.91 in1012.9 mb 0.01 in0.3 mm 0.00 in0.0 mm 0.02 in0.5 mm
04:20 AM 45.9°F7.7°C 43.4°F6.3°C 91% 9.0 mph SSW14.5 kmh SSW 18.0 mph29.0 kmh 29.91 in1012.9 mb 0.01 in0.3 mm 0.00 in0.0 mm 0.02 in0.5 mm
04:10 AM 45.7°F7.6°C 43.5°F6.4°C 92% 8.0 mph SSW12.9 kmh SSW 15.0 mph24.1 kmh 29.91 in1012.9 mb 0.01 in0.3 mm 0.00 in0.0 mm 0.02 in0.5 mm
04:00 AM 45.5°F7.5°C 43.3°F6.3°C 92% 6.0 mph SSW9.7 kmh SSW 12.0 mph19.3 kmh 29.91 in1012.9 mb 0.01 in0.3 mm 0.00 in0.0 mm 0.02 in0.5 mm
03:50 AM 45.3°F7.4°C 43.1°F6.2°C 92% 5.0 mph S8.0 kmh S 12.0 mph19.3 kmh 29.91 in1012.9 mb 0.01 in0.3 mm 0.00 in0.0 mm 0.02 in0.5 mm
03:40 AM 45.3°F7.4°C 43.1°F6.2°C 92% 3.0 mph S4.8 kmh S 10.0 mph16.1 kmh 29.91 in1012.9 mb 0.01 in0.3 mm 0.00 in0.0 mm 0.01 in0.3 mm
03:30 AM 45.1°F7.3°C 43.0°F6.1°C 92% 3.0 mph S4.8 kmh S 9.0 mph14.5 kmh 29.91 in1012.9 mb 0.01 in0.3 mm 0.00 in0.0 mm 0.01 in0.3 mm
03:20 AM 45.1°F7.3°C 43.0°F6.1°C 92% 5.0 mph S8.0 kmh S 12.0 mph19.3 kmh 29.91 in1012.9 mb 0.01 in0.3 mm 0.00 in0.0 mm 0.01 in0.3 mm
03:10 AM 45.1°F7.3°C 43.0°F6.1°C 92% 3.0 mph S4.8 kmh S 12.0 mph19.3 kmh 29.91 in1012.9 mb 0.01 in0.3 mm 0.00 in0.0 mm 0.01 in0.3 mm
03:00 AM 45.1°F7.3°C 43.0°F6.1°C 92% 5.0 mph S8.0 kmh S 12.0 mph19.3 kmh 29.91 in1012.9 mb 0.01 in0.3 mm 0.00 in0.0 mm 0.01 in0.3 mm
02:50 AM 45.0°F7.2°C 42.8°F6.0°C 92% 5.0 mph S8.0 kmh S 12.0 mph19.3 kmh 29.91 in1012.9 mb 0.01 in0.3 mm 0.06 in1.5 mm 0.01 in0.3 mm
02:40 AM 45.0°F7.2°C 42.8°F6.0°C 92% 5.0 mph S8.0 kmh S 9.0 mph14.5 kmh 29.92 in1013.2 mb 0.00 in0.0 mm 0.00 in0.0 mm 0.02 in0.5 mm
02:30 AM 45.0°F7.2°C 42.8°F6.0°C 92% 6.0 mph S9.7 kmh S 12.0 mph19.3 kmh 29.92 in1013.2 mb 0.00 in0.0 mm 0.00 in0.0 mm 0.02 in0.5 mm
02:20 AM 44.8°F7.1°C 42.6°F5.9°C 92% 5.0 mph S8.0 kmh S 12.0 mph19.3 kmh 29.92 in1013.2 mb 0.00 in0.0 mm 0.00 in0.0 mm 0.02 in0.5 mm
02:10 AM 44.6°F7.0°C 42.4°F5.8°C 92% 5.0 mph S8.0 kmh S 12.0 mph19.3 kmh 29.92 in1013.2 mb 0.00 in0.0 mm 0.00 in0.0 mm 0.02 in0.5 mm
02:00 AM 44.4°F6.9°C 42.2°F5.7°C 92% 5.0 mph S8.0 kmh S 12.0 mph19.3 kmh 29.93 in1013.5 mb 0.00 in0.0 mm 0.00 in0.0 mm 0.02 in0.5 mm
01:50 AM 44.4°F6.9°C 42.2°F5.7°C 92% 5.0 mph S8.0 kmh S 10.0 mph16.1 kmh 29.93 in1013.5 mb 0.00 in0.0 mm 0.00 in0.0 mm 0.02 in0.5 mm
01:40 AM 44.2°F6.8°C 42.1°F5.6°C 92% 5.0 mph SSE8.0 kmh SSE 9.0 mph14.5 kmh 29.93 in1013.5 mb 0.00 in0.0 mm 0.00 in0.0 mm 0.02 in0.5 mm
01:30 AM 44.2°F6.8°C 42.1°F5.6°C 92% 5.0 mph S8.0 kmh S 12.0 mph19.3 kmh 29.93 in1013.5 mb 0.00 in0.0 mm 0.00 in0.0 mm 0.02 in0.5 mm
01:20 AM 44.2°F6.8°C 42.1°F5.6°C 92% 6.0 mph SSE9.7 kmh SSE 12.0 mph19.3 kmh 29.93 in1013.5 mb 0.00 in0.0 mm 0.00 in0.0 mm 0.02 in0.5 mm
01:10 AM 44.2°F6.8°C 42.1°F5.6°C 92% 5.0 mph S8.0 kmh S 10.0 mph16.1 kmh 29.93 in1013.5 mb 0.00 in0.0 mm 0.00 in0.0 mm 0.02 in0.5 mm
01:00 AM 44.2°F6.8°C 41.8°F5.4°C 91% 5.0 mph S8.0 kmh S 12.0 mph19.3 kmh 29.93 in1013.5 mb 0.00 in0.0 mm 0.00 in0.0 mm 0.02 in0.5 mm
12:50 AM 44.2°F6.8°C 42.1°F5.6°C 92% 6.0 mph S9.7 kmh S 12.0 mph19.3 kmh 29.93 in1013.5 mb 0.00 in0.0 mm 0.00 in0.0 mm 0.02 in0.5 mm
12:40 AM 44.2°F6.8°C 42.1°F5.6°C 92% 7.0 mph S11.3 kmh S 14.0 mph22.5 kmh 29.93 in1013.5 mb 0.01 in0.3 mm 0.00 in0.0 mm 0.02 in0.5 mm
12:30 AM 44.2°F6.8°C 42.1°F5.6°C 92% 6.0 mph S9.7 kmh S 12.0 mph19.3 kmh 29.93 in1013.5 mb 0.01 in0.3 mm 0.00 in0.0 mm 0.02 in0.5 mm
12:20 AM 44.2°F6.8°C 42.1°F5.6°C 92% 6.0 mph S9.7 kmh S 12.0 mph19.3 kmh 29.93 in1013.5 mb 0.01 in0.3 mm 0.00 in0.0 mm 0.02 in0.5 mm
12:10 AM 44.2°F6.8°C 42.1°F5.6°C 92% 6.0 mph S9.7 kmh S 13.0 mph20.9 kmh 29.93 in1013.5 mb 0.02 in0.5 mm 0.00 in0.0 mm 0.02 in0.5 mm
12:00 AM 44.2°F6.8°C 42.1°F5.6°C 92% 6.0 mph S9.7 kmh S 13.0 mph20.9 kmh 29.93 in1013.5 mb 0.02 in0.5 mm 0.00 in0.0 mm 0.02 in0.5 mm